Time;durP1;ratioP1;P1;durP2;ratioP2;P2;SDS_P1;SDS_P2;PMS_P1;PMS_P2;Temp;Humidity;BMP_temperature;BMP_pressure;BME280_temperature;BME280_humidity;BME280_pressure;Samples;Min_cycle;Max_cycle;Signal;HPM_P1;HPM_P2
2021/01/09 00:02:06;;;;;;;2.03;0.93;;;;;;;10.29;68.92;100075.13;5028096;28;20039;-45
2021/01/09 00:04:31;;;;;;;4.47;0.95;;;;;;;10.16;69.36;100061.09;5027910;28;20049;-44
2021/01/09 00:06:56;;;;;;;0.95;0.57;;;;;;;10.08;68.97;100055.38;5041528;28;20041;-43
2021/01/09 00:09:22;;;;;;;0.80;0.52;;;;;;;10.12;68.22;100006.41;5045254;28;20041;-44
2021/01/09 00:11:47;;;;;;;0.75;0.52;;;;;;;10.05;68.89;100000.44;5046308;28;20047;-46
2021/01/09 00:14:15;;;;;;;0.63;0.60;;;;;;;10.10;68.85;99979.06;5045193;28;20141;-43
2021/01/09 00:16:47;;;;;;;0.50;0.40;;;;;;;10.05;68.80;99973.66;5046063;28;20091;-43
2021/01/09 00:19:13;;;;;;;0.60;0.30;;;;;;;10.07;69.23;99979.56;5045426;28;20094;-46
2021/01/09 00:21:38;;;;;;;10.18;0.50;;;;;;;10.08;69.28;100010.66;5046494;28;20044;-45
2021/01/09 00:24:09;;;;;;;0.98;0.30;;;;;;;10.14;68.22;99988.19;5031503;28;20120;-43
2021/01/09 00:26:35;;;;;;;0.30;0.20;;;;;;;10.12;68.96;99978.81;5045464;28;20045;-45
2021/01/09 00:29:02;;;;;;;0.35;0.20;;;;;;;10.13;68.53;99965.19;5045855;28;20056;-46
2021/01/09 00:31:27;;;;;;;0.75;0.28;;;;;;;10.20;68.69;99941.66;5044553;28;20069;-46
2021/01/09 00:33:53;;;;;;;0.80;0.60;;;;;;;10.16;69.18;99953.13;5031530;28;20680;-43
2021/01/09 00:36:18;;;;;;;1.05;0.40;;;;;;;10.19;69.25;99948.06;5027402;28;20048;-44
2021/01/09 00:38:44;;;;;;;0.47;0.20;;;;;;;10.18;68.28;99954.47;5027765;28;20050;-48
2021/01/09 00:41:09;;;;;;;1.45;0.73;;;;;;;10.19;68.00;99936.56;5027508;28;20032;-47
2021/01/09 00:43:35;;;;;;;0.10;0.10;;;;;;;10.21;68.40;99962.00;5027895;28;20123;-47
2021/01/09 00:46:00;;;;;;;5.68;0.45;;;;;;;10.25;68.52;99982.94;5027478;28;20448;-49
2021/01/09 00:48:26;;;;;;;0.05;0.00;;;;;;;10.20;68.97;99955.06;5028075;28;20120;-47
2021/01/09 00:50:51;;;;;;;1.35;0.65;;;;;;;10.27;68.94;99943.28;5030437;28;20143;-44
2021/01/09 00:53:16;;;;;;;0.20;0.20;;;;;;;10.23;68.57;99935.75;5030277;28;20060;-45
2021/01/09 00:55:42;;;;;;;0.25;0.20;;;;;;;10.25;68.49;99926.66;5030260;28;20047;-47
2021/01/09 00:58:07;;;;;;;1.73;0.95;;;;;;;10.39;69.00;99925.19;5029594;28;20076;-45
2021/01/09 01:00:33;;;;;;;2.35;0.98;;;;;;;10.42;69.62;99911.28;5030527;28;20033;-47
2021/01/09 01:02:58;;;;;;;0.50;0.32;;;;;;;10.33;69.68;99928.91;5027925;28;20091;-44
2021/01/09 01:05:24;;;;;;;0.10;0.10;;;;;;;10.31;69.13;99920.28;5030172;28;20116;-47
2021/01/09 01:07:49;;;;;;;1.75;0.32;;;;;;;10.33;68.55;99943.13;5030765;28;20046;-44
2021/01/09 01:10:15;;;;;;;0.17;0.10;;;;;;;10.38;68.27;99950.38;5030207;28;20033;-47
2021/01/09 01:12:41;;;;;;;2.55;0.30;;;;;;;10.44;67.75;99935.94;5030089;28;20052;-45
2021/01/09 01:15:07;;;;;;;0.50;0.17;;;;;;;10.43;67.32;99929.00;5029825;28;20476;-46
2021/01/09 01:17:33;;;;;;;1.95;0.32;;;;;;;10.37;67.97;99933.47;5029445;28;20061;-44
2021/01/09 01:19:58;;;;;;;0.17;0.10;;;;;;;10.48;67.89;99944.28;5029786;28;20029;-45
2021/01/09 01:22:24;;;;;;;1.25;0.98;;;;;;;10.52;67.65;99950.75;5030569;28;20049;-46
2021/01/09 01:24:49;;;;;;;4.22;0.57;;;;;;;10.49;67.60;99952.06;5029778;28;20103;-47
2021/01/09 01:27:15;;;;;;;0.82;0.40;;;;;;;10.51;67.64;99928.50;5030093;28;20382;-45
2021/01/09 01:29:40;;;;;;;0.43;0.28;;;;;;;10.55;68.11;99947.53;5029839;28;20053;-45
2021/01/09 01:32:05;;;;;;;0.93;0.60;;;;;;;10.58;68.22;99955.88;5030306;28;20061;-46
2021/01/09 01:34:31;;;;;;;2.15;0.80;;;;;;;10.56;68.15;99941.13;5029762;28;20037;-47
2021/01/09 01:36:56;;;;;;;4.80;1.67;;;;;;;10.68;68.76;99925.66;5029737;28;20052;-45
2021/01/09 01:39:22;;;;;;;1.55;0.68;;;;;;;10.69;68.55;99934.50;5030039;28;20100;-49
2021/01/09 01:41:47;;;;;;;1.58;0.77;;;;;;;10.75;68.39;99954.91;5029248;28;20025;-45
2021/01/09 01:44:13;;;;;;;1.85;0.68;;;;;;;10.81;68.40;99964.59;5029456;28;20030;-44
2021/01/09 01:46:38;;;;;;;1.52;0.60;;;;;;;10.75;68.91;99977.16;5033296;28;20033;-47
2021/01/09 01:49:06;;;;;;;3.83;0.70;;;;;;;10.75;68.93;99985.22;5031745;28;20080;-46
2021/01/09 01:51:31;;;;;;;7.40;3.47;;;;;;;10.77;69.60;100001.84;5028448;28;20030;-45
2021/01/09 01:53:57;;;;;;;3.05;1.58;;;;;;;10.77;69.60;99991.13;5030538;28;20056;-46
2021/01/09 01:56:23;;;;;;;3.30;1.50;;;;;;;10.76;69.95;99984.16;5031426;28;20045;-46
2021/01/09 01:58:48;;;;;;;2.80;1.00;;;;;;;10.80;70.27;99968.34;5042602;28;20095;-46
2021/01/09 02:01:16;;;;;;;8.27;1.33;;;;;;;10.80;69.85;99965.69;5047490;28;20087;-44
2021/01/09 02:03:41;;;;;;;3.95;3.42;;;;;;;10.84;70.02;99957.91;5048457;28;20123;-44
2021/01/09 02:06:16;;;;;;;8.15;3.53;;;;;;;10.74;70.38;99969.38;5048298;28;20521;-44
2021/01/09 02:09:01;;;;;;;4.65;3.15;;;;;;;10.77;70.43;99952.78;5023593;28;20039;-43
2021/01/09 02:11:36;;;;;;;8.40;2.33;;;;;;;10.74;70.86;99945.25;5030294;28;20075;-44
2021/01/09 02:14:08;;;;;;;2.30;1.05;;;;;;;10.73;71.14;99947.13;5030132;28;20068;-48
2021/01/09 02:16:34;;;;;;;2.90;2.25;;;;;;;10.68;71.45;99938.25;5047310;28;20040;-46
2021/01/09 02:18:59;;;;;;;2.08;1.45;;;;;;;10.70;72.15;99944.97;5048523;28;20044;-43
2021/01/09 02:21:34;;;;;;;5.55;2.83;;;;;;;10.58;72.27;99961.22;5046923;28;20128;-44
2021/01/09 02:23:59;;;;;;;1.67;1.45;;;;;;;10.66;72.22;99946.56;5048208;28;20772;-45
2021/01/09 02:26:25;;;;;;;2.22;0.60;;;;;;;10.60;71.90;99937.66;5045071;28;20033;-44
2021/01/09 02:28:50;;;;;;;1.02;0.60;;;;;;;10.59;72.61;99928.00;5034263;28;20512;-44
2021/01/09 02:31:21;;;;;;;2.78;1.10;;;;;;;10.64;72.82;99937.13;5037014;28;20033;-47
2021/01/09 02:33:48;;;;;;;4.53;1.35;;;;;;;10.54;73.33;99933.34;5040935;28;20052;-47
2021/01/09 02:36:15;;;;;;;2.78;1.63;;;;;;;10.57;73.08;99927.47;5044601;28;20025;-44
2021/01/09 02:38:43;;;;;;;2.42;1.15;;;;;;;10.64;72.92;99910.31;5047764;28;20124;-45
2021/01/09 02:41:13;;;;;;;3.70;0.98;;;;;;;10.55;73.01;99912.69;5026510;28;20148;-47
2021/01/09 02:43:38;;;;;;;3.38;0.98;;;;;;;10.40;74.17;99898.13;5039025;28;20033;-45
2021/01/09 02:46:03;;;;;;;2.10;1.05;;;;;;;10.49;74.27;99914.53;5047268;28;20488;-48
2021/01/09 02:48:29;;;;;;;1.85;1.30;;;;;;;10.39;74.39;99914.47;5046987;28;20435;-44
2021/01/09 02:50:54;;;;;;;5.15;1.25;;;;;;;10.46;74.43;99914.25;5037314;28;20052;-43
2021/01/09 02:53:20;;;;;;;3.50;1.42;;;;;;;10.57;74.07;99916.75;5030099;28;20048;-44
2021/01/09 02:55:45;;;;;;;3.25;1.27;;;;;;;10.34;74.57;99911.75;5032105;28;20095;-45
2021/01/09 02:58:10;;;;;;;2.03;1.00;;;;;;;10.30;73.79;99899.91;5028686;28;20366;-45
2021/01/09 03:00:36;;;;;;;1.73;0.90;;;;;;;10.46;73.78;99887.44;5036539;28;20467;-44
2021/01/09 03:03:01;;;;;;;1.48;0.57;;;;;;;10.53;73.64;99904.91;5029551;28;20450;-45
2021/01/09 03:05:27;;;;;;;2.85;1.33;;;;;;;10.50;73.59;99905.44;5028830;28;20091;-45
2021/01/09 03:07:52;;;;;;;5.15;0.55;;;;;;;10.47;74.67;99886.41;5029064;28;20056;-46
2021/01/09 03:10:18;;;;;;;3.35;1.33;;;;;;;10.51;74.43;99898.22;5028832;28;20038;-46
2021/01/09 03:12:43;;;;;;;6.28;2.75;;;;;;;10.48;73.94;99891.47;5028153;28;20045;-42
2021/01/09 03:15:09;;;;;;;3.70;1.80;;;;;;;10.59;73.42;99890.47;5028721;28;20030;-43
2021/01/09 03:17:35;;;;;;;5.95;1.27;;;;;;;10.49;74.64;99903.03;5035828;28;20393;-44
2021/01/09 03:20:00;;;;;;;6.57;1.17;;;;;;;10.56;74.11;99908.97;5028646;28;20072;-45
2021/01/09 03:22:25;;;;;;;4.15;1.20;;;;;;;10.59;73.93;99914.59;5030618;28;20048;-44
2021/01/09 03:24:51;;;;;;;3.75;1.27;;;;;;;10.68;73.63;99906.88;5041387;28;20069;-46
2021/01/09 03:27:16;;;;;;;2.25;1.48;;;;;;;10.64;73.66;99905.78;5028519;28;20512;-46
2021/01/09 03:29:42;;;;;;;7.65;1.48;;;;;;;10.68;73.83;99901.53;5028632;28;20676;-45
2021/01/09 03:32:07;;;;;;;3.53;1.50;;;;;;;10.73;73.74;99895.38;5028068;28;20470;-44
2021/01/09 03:34:33;;;;;;;5.60;1.65;;;;;;;10.60;74.25;99891.28;5037070;28;20584;-44
2021/01/09 03:36:58;;;;;;;8.35;3.15;;;;;;;10.69;73.74;99891.59;5031248;28;20478;-44
2021/01/09 03:39:24;;;;;;;5.75;0.77;;;;;;;10.74;73.46;99886.25;5031654;28;20045;-45
2021/01/09 03:41:49;;;;;;;3.75;1.65;;;;;;;10.70;73.86;99887.84;5031365;28;20074;-47
2021/01/09 03:44:14;;;;;;;5.50;0.82;;;;;;;10.60;74.38;99892.06;5031644;28;20084;-45
2021/01/09 03:46:40;;;;;;;7.25;1.60;;;;;;;10.66;74.25;99886.75;5042557;28;20037;-47
2021/01/09 03:49:05;;;;;;;2.47;1.23;;;;;;;10.72;73.54;99891.06;5049817;28;20040;-46
2021/01/09 03:51:31;;;;;;;6.38;2.45;;;;;;;10.75;73.58;99875.28;5047558;28;20083;-46
2021/01/09 03:53:56;;;;;;;2.22;1.45;;;;;;;10.65;73.93;99869.06;5049639;28;20036;-45
2021/01/09 03:56:21;;;;;;;5.05;1.52;;;;;;;10.59;74.07;99871.72;5048678;28;20414;-48
2021/01/09 03:58:47;;;;;;;9.25;1.65;;;;;;;10.69;74.11;99878.19;5046109;28;21564;-45
2021/01/09 04:01:12;;;;;;;2.60;1.15;;;;;;;10.72;73.75;99873.09;5031121;28;20450;-44
2021/01/09 04:03:38;;;;;;;1.92;1.38;;;;;;;10.72;73.47;99854.34;5031053;28;20042;-45
2021/01/09 04:06:04;;;;;;;7.07;2.22;;;;;;;10.76;73.60;99844.72;5030865;28;20033;-45
2021/01/09 04:08:29;;;;;;;2.70;1.08;;;;;;;10.79;73.73;99840.69;5030958;28;20041;-44
2021/01/09 04:10:55;;;;;;;4.38;1.17;;;;;;;10.81;73.09;99838.56;5030756;28;20144;-45
2021/01/09 04:13:20;;;;;;;6.35;1.42;;;;;;;10.68;73.95;99836.38;5030840;28;20037;-45
2021/01/09 04:15:45;;;;;;;4.50;1.50;;;;;;;10.68;73.90;99818.41;5031073;28;20030;-45
2021/01/09 04:18:11;;;;;;;4.68;1.65;;;;;;;10.75;73.59;99827.00;5030880;28;20038;-44
2021/01/09 04:20:36;;;;;;;8.27;1.35;;;;;;;10.74;73.68;99820.03;5030750;28;20032;-44
2021/01/09 04:23:02;;;;;;;4.30;1.98;;;;;;;10.76;73.72;99817.09;5030982;28;20096;-44
2021/01/09 04:25:27;;;;;;;10.77;1.40;;;;;;;10.71;73.79;99799.13;5035022;28;20108;-44
2021/01/09 04:27:53;;;;;;;0.60;0.30;;;;;;;10.68;74.05;99810.38;5035050;28;20055;-43
2021/01/09 04:30:19;;;;;;;1.27;0.60;;;;;;;10.68;74.19;99798.84;5035021;28;20037;-46
2021/01/09 04:32:44;;;;;;;7.55;1.05;;;;;;;10.42;75.15;99790.69;5034945;28;20056;-43
2021/01/09 04:35:10;;;;;;;2.17;1.08;;;;;;;10.43;75.57;99786.97;5034723;28;20061;-46
2021/01/09 04:37:38;;;;;;;5.32;1.08;;;;;;;10.46;74.88;99777.56;5035645;28;20041;-45
2021/01/09 04:40:05;;;;;;;3.28;1.02;;;;;;;10.59;74.53;99780.56;5035618;28;20063;-45
2021/01/09 04:42:32;;;;;;;6.88;1.05;;;;;;;10.63;74.72;99791.59;5034436;28;20045;-44
2021/01/09 04:44:58;;;;;;;3.70;1.35;;;;;;;10.60;74.58;99779.50;5034880;28;20052;-42
2021/01/09 04:47:25;;;;;;;2.35;1.02;;;;;;;10.38;75.98;99778.88;5034274;28;20466;-42
2021/01/09 04:49:50;;;;;;;3.05;0.88;;;;;;;10.37;75.59;99774.59;5034735;28;20665;-43
2021/01/09 04:52:18;;;;;;;3.53;0.77;;;;;;;10.54;74.63;99764.47;5034553;28;20033;-44
2021/01/09 04:54:44;;;;;;;2.30;1.10;;;;;;;10.60;74.40;99776.81;5038222;28;20029;-43
2021/01/09 04:57:10;;;;;;;1.88;0.75;;;;;;;10.73;73.84;99777.41;5041257;28;20481;-43
2021/01/09 04:59:37;;;;;;;1.60;0.43;;;;;;;10.75;73.80;99784.13;5044970;28;20037;-44
2021/01/09 05:02:04;;;;;;;0.93;0.60;;;;;;;10.62;73.53;99792.63;5046126;28;20044;-47
2021/01/09 05:04:30;;;;;;;0.00;0.00;;;;;;;10.68;71.72;99793.47;5051966;28;20029;-41
2021/01/09 05:06:55;;;;;;;0.00;0.00;;;;;;;10.80;71.26;99775.28;5052299;28;20102;-41
2021/01/09 05:09:20;;;;;;;0.00;0.00;;;;;;;10.92;70.59;99766.97;5051859;28;20083;-42
2021/01/09 05:11:46;;;;;;;0.00;0.00;;;;;;;10.91;70.78;99768.88;5052556;28;20033;-42
2021/01/09 05:14:12;;;;;;;0.00;0.00;;;;;;;11.00;70.32;99776.41;5051778;28;20041;-43
2021/01/09 05:16:39;;;;;;;0.00;0.00;;;;;;;11.05;70.08;99784.47;5026922;28;20041;-42
2021/01/09 05:19:06;;;;;;;0.00;0.00;;;;;;;11.04;71.33;99777.47;5034310;28;20038;-44
2021/01/09 05:21:34;;;;;;;3.83;1.55;;;;;;;11.00;71.57;99776.41;5050416;28;20099;-45
2021/01/09 05:24:04;;;;;;;0.57;0.20;;;;;;;10.91;71.43;99765.38;5052411;28;20029;-42
2021/01/09 05:26:30;;;;;;;0.00;0.00;;;;;;;10.97;71.00;99773.19;5051050;28;20044;-43
2021/01/09 05:29:00;;;;;;;0.43;0.43;;;;;;;11.10;70.47;99746.91;5051882;28;20057;-42
2021/01/09 05:31:27;;;;;;;0.00;0.00;;;;;;;11.13;70.55;99744.50;5049970;28;20036;-41
2021/01/09 05:33:54;;;;;;;0.47;0.10;;;;;;;11.13;70.78;99732.94;5052023;28;20048;-42
2021/01/09 05:36:20;;;;;;;0.00;0.00;;;;;;;11.08;71.03;99730.25;5050857;28;20112;-42
2021/01/09 05:38:47;;;;;;;0.03;0.03;;;;;;;11.12;71.05;99718.72;5052184;28;20045;-44
2021/01/09 05:41:14;;;;;;;0.85;0.43;;;;;;;11.08;72.37;99712.31;5050933;28;20493;-43
2021/01/09 05:43:40;;;;;;;0.13;0.10;;;;;;;11.00;71.64;99696.72;5052287;28;20037;-46
2021/01/09 05:46:07;;;;;;;0.00;0.00;;;;;;;11.09;70.61;99700.47;5043402;28;20091;-46
2021/01/09 05:48:34;;;;;;;0.20;0.20;;;;;;;11.21;69.99;99699.44;5050632;28;20044;-45
2021/01/09 05:51:05;;;;;;;0.00;0.00;;;;;;;11.22;69.82;99701.84;5037928;28;20029;-44
2021/01/09 05:53:41;;;;;;;0.00;0.00;;;;;;;11.33;69.50;99711.50;5034414;28;20049;-46
2021/01/09 05:56:08;;;;;;;0.00;0.00;;;;;;;11.26;69.84;99721.69;5037663;28;20094;-48
2021/01/09 05:58:34;;;;;;;0.00;0.00;;;;;;;11.26;69.87;99724.38;5051156;28;20029;-44
2021/01/09 06:01:04;;;;;;;0.00;0.00;;;;;;;11.26;69.83;99716.31;5040477;28;20033;-42
2021/01/09 06:03:37;;;;;;;0.10;0.10;;;;;;;11.27;69.63;99717.94;5033138;28;20034;-42
2021/01/09 06:06:12;;;;;;;0.00;0.00;;;;;;;11.34;69.80;99720.34;5047442;28;20028;-48
2021/01/09 06:08:44;;;;;;;0.00;0.00;;;;;;;11.38;69.44;99736.72;5051756;28;20497;-46
2021/01/09 06:11:16;;;;;;;0.00;0.00;;;;;;;11.28;69.92;99732.97;5050659;28;20033;-43
2021/01/09 06:13:45;;;;;;;0.22;0.10;;;;;;;11.31;70.48;99742.38;5026390;28;20041;-46
2021/01/09 06:16:10;;;;;;;0.10;0.10;;;;;;;11.32;70.47;99735.91;5032817;28;20041;-43
2021/01/09 06:18:37;;;;;;;0.00;0.00;;;;;;;11.32;70.46;99743.97;5032924;28;20075;-47
2021/01/09 06:21:03;;;;;;;0.00;0.00;;;;;;;11.43;70.12;99739.38;5031427;28;20107;-48
2021/01/09 06:23:30;;;;;;;0.00;0.00;;;;;;;11.43;70.17;99750.13;5032993;28;20033;-44
2021/01/09 06:25:56;;;;;;;0.00;0.00;;;;;;;11.39;70.12;99739.13;5032961;28;20041;-45
2021/01/09 06:28:25;;;;;;;0.20;0.10;;;;;;;11.43;70.32;99729.47;5032582;28;20123;-44
2021/01/09 06:30:55;;;;;;;0.00;0.00;;;;;;;11.39;70.62;99733.75;5033061;28;20135;-46
2021/01/09 06:33:23;;;;;;;0.17;0.00;;;;;;;11.43;70.45;99724.13;5032568;28;20152;-49
2021/01/09 06:35:54;;;;;;;1.20;0.32;;;;;;;11.44;70.49;99720.34;5032327;28;20178;-42
2021/01/09 06:38:21;;;;;;;0.00;0.00;;;;;;;11.53;70.20;99715.22;5032719;28;20049;-42
2021/01/09 06:40:46;;;;;;;0.20;0.10;;;;;;;11.50;69.88;99707.72;5032494;28;20049;-43
2021/01/09 06:43:14;;;;;;;0.17;0.08;;;;;;;11.56;69.62;99713.91;5032211;28;20041;-42
2021/01/09 06:45:42;;;;;;;0.00;0.00;;;;;;;11.57;69.81;99729.75;5029589;28;20037;-43
2021/01/09 06:48:10;;;;;;;0.00;0.00;;;;;;;11.63;69.84;99750.13;5032109;28;20124;-47
2021/01/09 06:50:36;;;;;;;0.05;0.03;;;;;;;11.77;69.26;99746.91;5032672;28;20088;-44
2021/01/09 06:53:02;;;;;;;1.80;0.10;;;;;;;11.83;69.05;99733.19;5032161;28;20049;-46
2021/01/09 06:55:37;;;;;;;0.20;0.20;;;;;;;11.74;70.24;99721.38;5031984;28;20084;-43
2021/01/09 06:58:04;;;;;;;0.03;0.03;;;;;;;11.67;70.20;99707.44;5032023;28;20041;-43
2021/01/09 07:00:29;;;;;;;0.00;0.00;;;;;;;11.73;69.98;99699.09;5031962;28;20029;-42
2021/01/09 07:03:16;;;;;;;0.00;0.00;;;;;;;11.66;70.39;99712.00;5030863;28;20083;-43
2021/01/09 07:05:46;;;;;;;0.00;0.00;;;;;;;11.69;70.42;99708.78;5035549;28;20073;-42
2021/01/09 07:08:30;;;;;;;0.00;0.00;;;;;;;11.76;70.56;99695.03;5049436;28;20041;-42
2021/01/09 07:10:58;;;;;;;0.00;0.00;;;;;;;11.69;70.53;99705.28;5026314;28;20397;-42
2021/01/09 07:13:25;;;;;;;0.00;0.00;;;;;;;11.65;71.42;99720.31;5047978;28;20064;-43
2021/01/09 07:16:10;;;;;;;0.00;0.00;;;;;;;11.67;70.50;99708.22;5050325;28;20044;-42
2021/01/09 07:18:41;;;;;;;0.00;0.00;;;;;;;11.66;70.56;99695.09;5049594;28;20465;-44
2021/01/09 07:21:10;;;;;;;0.00;0.00;;;;;;;11.77;70.20;99695.88;5050007;28;20037;-42
2021/01/09 07:23:37;;;;;;;0.10;0.03;;;;;;;11.71;70.67;99692.38;5034969;28;20128;-42
2021/01/09 07:26:03;;;;;;;0.00;0.00;;;;;;;11.72;70.36;99659.09;5041775;28;20038;-43
2021/01/09 07:28:34;;;;;;;0.35;0.35;;;;;;;11.70;70.79;99675.47;5030764;28;20077;-39
2021/01/09 07:31:03;;;;;;;0.45;0.10;;;;;;;11.77;71.39;99688.59;5031879;28;20021;-42
2021/01/09 07:33:33;;;;;;;0.00;0.00;;;;;;;11.81;70.59;99681.59;5031073;28;20178;-41
2021/01/09 07:35:59;;;;;;;0.00;0.00;;;;;;;11.90;70.25;99681.84;5031614;28;20108;-43
2021/01/09 07:38:26;;;;;;;0.00;0.00;;;;;;;11.86;70.84;99670.06;5040654;28;20051;-42
2021/01/09 07:40:57;;;;;;;0.47;0.10;;;;;;;11.77;71.36;99683.25;5044641;28;20034;-47
2021/01/09 07:43:36;;;;;;;0.85;0.20;;;;;;;11.81;71.57;99691.56;5031434;28;20037;-43
2021/01/09 07:46:22;;;;;;;4.38;0.13;;;;;;;11.93;71.30;99699.34;5031392;28;20037;-44
2021/01/09 07:48:48;;;;;;;0.10;0.10;;;;;;;11.88;71.57;99676.75;5031693;28;20126;-45
2021/01/09 07:51:14;;;;;;;0.00;0.00;;;;;;;11.93;71.33;99683.22;5031499;28;20100;-44
2021/01/09 07:53:47;;;;;;;0.00;0.00;;;;;;;11.86;71.37;99672.75;5031433;28;20190;-42
2021/01/09 07:56:38;;;;;;;0.00;0.00;;;;;;;11.93;70.96;99689.41;5031496;28;20116;-42
2021/01/09 07:59:07;;;;;;;0.93;0.43;;;;;;;11.93;71.25;99673.28;5031188;28;20116;-44
2021/01/09 08:01:50;;;;;;;0.40;0.30;;;;;;;11.91;72.16;99700.41;5029785;28;20064;-44
2021/01/09 08:04:16;;;;;;;0.10;0.10;;;;;;;11.94;72.71;99712.50;5046168;28;20037;-44
2021/01/09 08:06:42;;;;;;;0.00;0.00;;;;;;;11.95;72.98;99713.31;5030985;28;20045;-45
2021/01/09 08:09:09;;;;;;;0.05;0.05;;;;;;;11.92;73.05;99741.50;5031294;28;20155;-43
2021/01/09 08:11:42;;;;;;;0.20;0.10;;;;;;;11.95;73.28;99718.69;5030863;28;20475;-43
2021/01/09 08:14:07;;;;;;;2.55;0.20;;;;;;;11.98;73.36;99712.75;5045835;28;20347;-42
2021/01/09 08:16:33;;;;;;;0.00;0.00;;;;;;;11.90;74.86;99735.56;5048718;28;20040;-43
2021/01/09 08:19:19;;;;;;;0.00;0.00;;;;;;;11.92;73.84;99738.81;5041188;28;20034;-43
2021/01/09 08:21:46;;;;;;;2.38;0.30;;;;;;;11.87;74.42;99728.06;5024519;28;20553;-43
2021/01/09 08:24:26;;;;;;;0.75;0.38;;;;;;;11.89;74.19;99752.78;5031159;28;20045;-47
2021/01/09 08:26:56;;;;;;;0.75;0.28;;;;;;;11.98;73.49;99748.50;5025496;28;20116;-42
2021/01/09 08:29:24;;;;;;;0.73;0.33;;;;;;;12.06;73.25;99769.44;5030403;28;20509;-41
2021/01/09 08:31:50;;;;;;;0.38;0.13;;;;;;;12.05;73.52;99775.06;5030511;28;20313;-42
2021/01/09 08:34:20;;;;;;;0.73;0.50;;;;;;;12.02;73.89;99789.03;5045744;28;20125;-43
2021/01/09 08:36:48;;;;;;;3.10;0.30;;;;;;;11.97;73.06;99784.47;5035557;28;20033;-42
2021/01/09 08:39:13;;;;;;;1.88;0.88;;;;;;;-146.19;100.00;63747.78;5031008;28;20034;-55
2021/01/09 08:41:40;;;;;;;3.28;1.83;;;;;;;-146.19;100.00;63747.78;5034200;28;20089;-56
2021/01/09 08:44:10;;;;;;;1.73;0.88;;;;;;;-146.19;100.00;63747.78;5031460;28;20045;-55
2021/01/09 08:46:36;;;;;;;3.30;0.73;;;;;;;-146.19;100.00;63747.78;5048157;28;20041;-56
2021/01/09 08:49:04;;;;;;;0.60;0.17;;;;;;;-146.19;100.00;63747.78;5049137;28;20537;-57
2021/01/09 08:51:32;;;;;;;0.20;0.20;;;;;;;-146.19;100.00;63747.78;5032723;28;20069;-55
2021/01/09 08:53:59;;;;;;;0.38;0.20;;;;;;;-146.19;100.00;63747.78;5042053;28;20040;-54
2021/01/09 08:56:30;;;;;;;0.30;0.20;;;;;;;-146.19;100.00;63747.78;5033642;28;20033;-56
2021/01/09 08:59:08;;;;;;;1.77;0.20;;;;;;;-146.19;100.00;63747.78;5049730;28;20037;-57
2021/01/09 09:01:57;;;;;;;0.00;0.00;;;;;;;-146.19;100.00;63747.78;5037904;28;20083;-56
2021/01/09 09:04:24;;;;;;;0.57;0.40;;;;;;;-146.19;100.00;63747.78;5026716;28;20134;-55
2021/01/09 09:07:04;;;;;;;1.70;0.28;;;;;;;-146.19;100.00;63747.78;5032213;28;20429;-55
2021/01/09 09:09:32;;;;;;;0.00;0.00;;;;;;;-146.19;100.00;63747.78;5031258;28;20379;-51
2021/01/09 09:11:57;;;;;;;0.40;0.30;;;;;;;-146.19;100.00;63747.78;5041751;28;20022;-54
2021/01/09 09:14:25;;;;;;;1.90;0.95;;;;;;;-146.19;100.00;63747.78;5035957;28;20382;-57
2021/01/09 09:17:03;;;;;;;2.20;1.23;;;;;;;-146.19;100.00;63747.78;5034513;28;20124;-54
2021/01/09 09:19:34;;;;;;;1.65;0.88;;;;;;;-146.19;100.00;63747.78;5034308;28;20037;-57
2021/01/09 09:22:00;;;;;;;1.17;0.85;;;;;;;-146.19;100.00;63747.78;5033514;28;20037;-57
2021/01/09 09:24:39;;;;;;;0.85;0.60;;;;;;;-146.19;100.00;63747.78;5034856;28;20528;-57
2021/01/09 09:27:29;;;;;;;2.35;0.80;;;;;;;-146.19;100.00;63747.78;5034485;28;20056;-58
2021/01/09 09:30:11;;;;;;;0.45;0.22;;;;;;;-146.19;100.00;63747.78;5034752;28;20056;-56
2021/01/09 09:46:26;;;;;;;13.95;7.18;;;;;;;;;;5088714;27;20828;-58
2021/01/09 09:48:52;;;;;;;4.00;1.60;;;;;;;;;;5084736;28;20119;-59
2021/01/09 09:51:17;;;;;;;0.38;0.30;;;;;;;;;;5069736;28;20046;-59
2021/01/09 09:53:54;;;;;;;0.10;0.10;;;;;;;;;;5101032;28;20090;-59
2021/01/09 09:56:20;;;;;;;3.33;1.00;;;;;;;;;;5080918;28;20023;-58
2021/01/09 09:58:47;;;;;;;2.38;0.73;;;;;;;;;;5082432;28;20029;-58
2021/01/09 10:01:19;;;;;;;0.10;0.10;;;;;;;;;;5077116;28;20480;-58
2021/01/09 10:03:45;;;;;;;2.55;0.52;;;;;;;;;;5083373;28;20094;-58
2021/01/09 10:06:10;;;;;;;3.20;0.57;;;;;;;;;;5082754;28;20021;-56
2021/01/09 10:08:36;;;;;;;1.90;1.10;;;;;;;;;;5079692;28;20035;-58
2021/01/09 10:11:02;;;;;;;1.00;0.50;;;;;;;;;;5079125;28;20463;-57
2021/01/09 10:13:28;;;;;;;1.85;1.00;;;;;;;;;;5068006;28;20071;-57
2021/01/09 10:15:56;;;;;;;1.77;0.50;;;;;;;;;;5068004;28;20056;-58
2021/01/09 10:18:21;;;;;;;0.10;0.10;;;;;;;;;;5078998;28;20074;-58
2021/01/09 10:20:46;;;;;;;1.58;0.40;;;;;;;;;;5084282;28;20020;-58
2021/01/09 10:23:11;;;;;;;3.67;2.25;;;;;;;;;;5076299;28;20025;-53
2021/01/09 10:25:37;;;;;;;4.95;2.85;;;;;;;;;;5073800;28;20212;-59
2021/01/09 10:28:02;;;;;;;5.60;3.20;;;;;;;;;;5079086;28;20052;-58
2021/01/09 10:30:28;;;;;;;2.15;1.08;;;;;;;;;;5073073;28;20436;-56
2021/01/09 10:32:53;;;;;;;0.65;0.35;;;;;;;;;;5072353;28;20024;-57
2021/01/09 10:35:18;;;;;;;3.40;2.20;;;;;;;;;;5070377;28;20068;-58
2021/01/09 10:37:44;;;;;;;5.25;0.63;;;;;;;;;;5073626;28;20025;-57
2021/01/09 10:40:09;;;;;;;2.17;0.98;;;;;;;;;;5077759;28;20029;-59
2021/01/09 10:42:34;;;;;;;0.95;0.60;;;;;;;;;;5086987;28;20025;-59
2021/01/09 10:45:00;;;;;;;1.45;0.70;;;;;;;;;;5066598;28;20179;-59
2021/01/09 10:47:25;;;;;;;2.88;0.88;;;;;;;;;;5062008;28;20033;-59
2021/01/09 10:49:51;;;;;;;1.25;0.75;;;;;;;;;;5067562;28;20497;-59
2021/01/09 10:52:16;;;;;;;1.83;1.20;;;;;;;;;;5067641;28;20060;-58
2021/01/09 10:54:41;;;;;;;4.68;0.50;;;;;;;;;;5057597;28;20044;-58
2021/01/09 10:57:06;;;;;;;7.38;1.77;;;;;;;;;;5060074;28;20657;-58
2021/01/09 10:59:32;;;;;;;3.08;1.83;;;;;;;;;;5062891;28;20052;-58
2021/01/09 11:01:57;;;;;;;5.30;4.13;;;;;;;;;;5061221;28;20079;-58
2021/01/09 11:04:23;;;;;;;3.13;1.95;;;;;;;;;;5061823;28;20033;-59
2021/01/09 11:06:48;;;;;;;2.17;1.77;;;;;;;;;;5060909;28;20032;-59
2021/01/09 11:09:13;;;;;;;2.42;0.85;;;;;;;;;;5068858;28;20665;-57
2021/01/09 11:11:39;;;;;;;0.63;0.40;;;;;;;;;;5057164;28;20432;-58
2021/01/09 11:14:04;;;;;;;1.48;0.43;;;;;;;;;;5058010;28;20045;-58
2021/01/09 11:16:29;;;;;;;1.95;0.80;;;;;;;;;;5061061;28;20090;-58
2021/01/09 11:18:55;;;;;;;2.03;0.98;;;;;;;;;;5061317;28;20032;-58
2021/01/09 11:21:20;;;;;;;2.88;0.88;;;;;;;;;;5058925;28;20482;-58
2021/01/09 11:23:46;;;;;;;2.17;1.10;;;;;;;;;;5062856;28;20429;-59
2021/01/09 11:26:12;;;;;;;1.92;1.00;;;;;;;;;;5054475;28;20033;-59
2021/01/09 11:28:37;;;;;;;4.10;1.33;;;;;;;;;;5058894;28;20055;-59
2021/01/09 11:31:03;;;;;;;5.35;1.55;;;;;;;;;;5063324;28;20438;-59
2021/01/09 11:33:28;;;;;;;5.95;1.85;;;;;;;;;;5063349;28;20498;-59
2021/01/09 11:35:53;;;;;;;9.43;3.28;;;;;;;;;;5052237;28;20391;-58
2021/01/09 11:38:20;;;;;;;4.57;2.90;;;;;;;;;;5065421;28;20374;-59
2021/01/09 11:40:46;;;;;;;3.50;1.00;;;;;;;;;;5068070;28;20036;-59
2021/01/09 11:43:11;;;;;;;1.48;0.75;;;;;;;;;;5063935;28;20701;-59
2021/01/09 11:45:36;;;;;;;2.60;1.75;;;;;;;;;;5055286;28;20048;-59
2021/01/09 11:48:02;;;;;;;4.22;1.45;;;;;;;;;;5060447;28;20124;-59
2021/01/09 11:50:27;;;;;;;7.22;1.00;;;;;;;;;;5049728;28;20039;-60
2021/01/09 11:52:53;;;;;;;5.55;1.92;;;;;;;;;;5049466;28;20074;-59
2021/01/09 11:55:18;;;;;;;2.20;0.75;;;;;;;;;;5068488;28;20417;-59
2021/01/09 11:57:43;;;;;;;2.15;1.05;;;;;;;;;;5049834;28;20032;-60
2021/01/09 12:00:09;;;;;;;3.47;1.35;;;;;;;;;;5061697;28;20021;-60
2021/01/09 12:02:36;;;;;;;7.10;2.22;;;;;;;;;;5058316;28;20032;-60
2021/01/09 12:05:02;;;;;;;3.78;1.65;;;;;;;;;;5052506;28;20080;-60
2021/01/09 12:07:27;;;;;;;1.40;0.68;;;;;;;;;;5057050;28;20521;-57
2021/01/09 12:09:52;;;;;;;4.93;1.65;;;;;;;;;;5063995;28;20021;-58
2021/01/09 12:12:17;;;;;;;3.20;1.77;;;;;;;;;;5067162;28;20028;-50
2021/01/09 12:14:43;;;;;;;16.52;2.25;;;;;;;;;;5061516;28;20083;-50
2021/01/09 12:17:08;;;;;;;4.72;2.78;;;;;;;;;;5052068;28;20095;-53
2021/01/09 12:19:33;;;;;;;2.30;1.33;;;;;;;;;;5060073;28;20161;-52
2021/01/09 12:21:59;;;;;;;4.50;2.25;;;;;;;;;;5059611;28;20051;-53